createdAt,value
2018-04-28T00:01:26.784Z,79.74
2018-04-28T00:03:54.524Z,79.34
2018-04-28T00:06:22.963Z,80.15
2018-04-28T00:08:50.804Z,81.41
2018-04-28T00:11:18.473Z,81.55
2018-04-28T00:13:46.189Z,80.99
2018-04-28T00:16:16.832Z,80.88
2018-04-28T00:18:47.144Z,80.39
2018-04-28T00:21:14.802Z,80.45
2018-04-28T00:23:44.361Z,79.43
2018-04-28T00:26:11.999Z,79.67
2018-04-28T00:28:58.214Z,79.86
2018-04-28T00:31:32.110Z,80.64
2018-04-28T00:34:01.583Z,81.18
2018-04-28T00:37:03.747Z,81.46
2018-04-28T00:39:34.998Z,81.35
2018-04-28T00:42:02.692Z,81.07
2018-04-28T00:44:31.030Z,81.19
2018-04-28T00:46:59.625Z,81.80
2018-04-28T00:49:34.052Z,82.00
2018-04-28T00:52:01.783Z,81.66
2018-04-28T00:54:34.392Z,81.07
2018-04-28T00:57:23.556Z,81.04
2018-04-28T00:59:57.879Z,81.85
2018-04-28T01:02:25.625Z,82.30
2018-04-28T01:04:53.322Z,82.71
2018-04-28T01:07:22.556Z,83.42
2018-04-28T01:10:00.848Z,82.40
2018-04-28T01:12:43.605Z,82.29
2018-04-28T01:15:14.926Z,81.66
2018-04-28T01:18:01.131Z,81.31
2018-04-28T01:20:30.949Z,81.72
2018-04-28T01:23:07.801Z,82.12
2018-04-28T01:25:53.406Z,82.82
2018-04-28T01:28:28.913Z,82.88
2018-04-28T01:31:01.255Z,83.00
2018-04-28T01:33:48.497Z,83.71
2018-04-28T01:36:33.582Z,83.84
2018-04-28T01:39:08.979Z,84.36
2018-04-28T01:41:48.372Z,83.14
2018-04-28T01:44:28.168Z,83.53
2018-04-28T01:46:56.642Z,83.96
2018-04-28T01:52:35.110Z,82.00
2018-04-28T01:55:05.023Z,82.58
2018-04-28T01:57:53.277Z,83.03
2018-04-28T02:00:39.430Z,83.73
2018-04-28T02:03:14.995Z,83.00
2018-04-28T02:05:49.384Z,83.41
2018-04-28T02:08:17.866Z,83.58
2018-04-28T02:10:53.261Z,82.85
2018-04-28T02:13:29.119Z,82.39
2018-04-28T02:16:02.522Z,82.43
2018-04-28T02:21:43.735Z,82.63
2018-04-28T02:24:13.290Z,82.07
2018-04-28T02:26:40.961Z,82.58
2018-04-28T02:29:14.663Z,83.18
2018-04-28T02:31:50.954Z,83.42
2018-04-28T02:34:25.820Z,82.90
2018-04-28T02:36:58.807Z,83.35
2018-04-28T02:39:28.388Z,83.11
2018-04-28T02:42:16.452Z,82.69
2018-04-28T02:44:44.904Z,84.49
2018-04-28T02:47:25.235Z,83.80
2018-04-28T02:50:01.670Z,83.67
2018-04-28T02:52:39.091Z,83.25
2018-04-28T02:58:20.716Z,83.12
2018-04-28T03:03:51.034Z,83.19
2018-04-28T03:06:22.471Z,83.37
2018-04-28T03:08:51.022Z,83.70
2018-04-28T03:11:18.724Z,84.24
2018-04-28T03:13:50.922Z,83.95
2018-04-28T03:19:16.288Z,83.79
2018-04-28T03:21:49.579Z,84.74
2018-04-28T03:24:24.832Z,84.74
2018-04-28T03:27:10.925Z,84.54
2018-04-28T03:29:50.404Z,83.98
2018-04-28T03:32:18.124Z,83.52
2018-04-28T03:34:46.649Z,83.28
2018-04-28T03:37:27.353Z,83.60
2018-04-28T03:40:01.898Z,83.34
2018-04-28T03:42:36.323Z,83.03
2018-04-28T03:45:04.033Z,83.77
2018-04-28T03:47:44.097Z,83.39
2018-04-28T03:50:31.712Z,83.24
2018-04-28T03:53:06.153Z,84.07
2018-04-28T03:55:34.737Z,83.08
2018-04-28T03:58:14.084Z,83.01
2018-04-28T04:00:53.498Z,83.47
2018-04-28T04:03:22.092Z,83.78
2018-04-28T04:06:06.187Z,84.63
2018-04-28T04:08:37.898Z,84.94
2018-04-28T04:11:17.286Z,84.79
2018-04-28T04:13:56.594Z,84.84
2018-04-28T04:16:48.743Z,85.22
2018-04-28T04:19:22.501Z,85.47
2018-04-28T04:24:48.771Z,85.09
2018-04-28T04:27:30.964Z,85.03
2018-04-28T04:30:21.463Z,85.87
2018-04-28T04:33:09.677Z,85.75
2018-04-28T04:35:42.857Z,85.26
2018-04-28T04:38:29.066Z,86.23
2018-04-28T04:41:03.251Z,86.92
2018-04-28T04:43:39.784Z,85.86
2018-04-28T04:49:19.849Z,85.64
2018-04-28T04:51:56.923Z,84.64
2018-04-28T04:54:43.328Z,84.91
2018-04-28T04:57:23.747Z,85.10
2018-04-28T04:59:57.131Z,84.45
2018-04-28T05:02:46.808Z,84.09
2018-04-28T05:08:36.323Z,82.87
2018-04-28T05:11:32.478Z,81.36
2018-04-28T05:17:10.502Z,81.77
2018-04-28T05:19:53.141Z,81.66
2018-04-28T05:25:27.370Z,79.75
2018-04-28T05:28:19.614Z,78.73
2018-04-28T05:30:59.173Z,78.87
2018-04-28T05:33:39.424Z,78.33
2018-04-28T05:36:19.258Z,77.06
2018-04-28T05:39:17.445Z,76.26
2018-04-28T05:41:56.974Z,75.72
2018-04-28T05:44:47.374Z,75.50
2018-04-28T05:47:21.908Z,73.58
2018-04-28T05:50:09.655Z,73.79
2018-04-28T05:52:49.103Z,72.64
2018-04-28T05:55:41.655Z,71.96
2018-04-28T05:58:13.168Z,72.21
2018-04-28T06:00:53.010Z,73.20
2018-04-28T06:06:37.434Z,73.40
2018-04-28T06:09:26.485Z,73.12
2018-04-28T06:15:32.664Z,72.81
2018-04-28T06:18:09.844Z,71.69
2018-04-28T06:20:41.385Z,72.57
2018-04-28T06:23:08.991Z,72.34
2018-04-28T06:25:37.133Z,73.02
2018-04-28T06:28:05.000Z,71.22
2018-04-28T06:30:32.871Z,69.32
2018-04-28T06:33:02.561Z,67.80
2018-04-28T06:35:30.648Z,69.82
2018-04-28T06:37:58.341Z,70.88
2018-04-28T06:40:26.264Z,69.31
2018-04-28T06:42:54.352Z,67.81
2018-04-28T06:45:22.239Z,66.68
2018-04-28T06:47:50.186Z,66.14
2018-04-28T06:50:18.174Z,67.24
2018-04-28T06:52:46.440Z,68.00
2018-04-28T06:55:14.437Z,66.49
2018-04-28T06:57:42.529Z,65.78
2018-04-28T07:00:10.708Z,64.61
2018-04-28T07:02:38.514Z,65.21
2018-04-28T07:05:06.697Z,64.35
2018-04-28T07:07:34.719Z,62.45
2018-04-28T07:10:02.851Z,61.25
2018-04-28T07:12:30.765Z,61.02
2018-04-28T07:14:58.558Z,59.60
2018-04-28T07:17:26.439Z,58.21
2018-04-28T07:19:54.099Z,60.04
2018-04-28T07:22:22.043Z,60.65
2018-04-28T07:24:50.264Z,57.60
2018-04-28T07:27:17.891Z,57.94
2018-04-28T07:29:45.674Z,58.34
2018-04-28T07:32:13.444Z,58.47
2018-04-28T07:34:41.102Z,58.71
2018-04-28T07:37:08.798Z,57.95
2018-04-28T07:39:36.633Z,57.13
2018-04-28T07:42:04.405Z,57.02
2018-04-28T07:44:32.531Z,57.43
2018-04-28T07:47:00.333Z,57.25
2018-04-28T07:49:28.344Z,56.56
2018-04-28T07:51:56.067Z,57.36
2018-04-28T07:54:24.125Z,54.96
2018-04-28T07:56:52.049Z,55.85
2018-04-28T07:59:20.166Z,54.78
2018-04-28T08:01:47.851Z,54.04
2018-04-28T08:04:15.716Z,56.00
2018-04-28T08:06:43.464Z,56.10
2018-04-28T08:09:11.340Z,56.63
2018-04-28T08:11:39.210Z,55.18
2018-04-28T08:14:07.867Z,53.99
2018-04-28T08:16:35.801Z,54.76
2018-04-28T08:19:03.536Z,55.22
2018-04-28T08:21:31.292Z,56.34
2018-04-28T08:23:59.066Z,55.82
2018-04-28T08:26:26.798Z,54.21
2018-04-28T08:28:54.486Z,53.61
2018-04-28T08:31:22.250Z,54.45
2018-04-28T08:33:50.009Z,54.53
2018-04-28T08:36:17.763Z,53.25
2018-04-28T08:38:45.529Z,52.21
2018-04-28T08:41:14.136Z,53.01
2018-04-28T08:43:41.998Z,52.06
2018-04-28T08:46:09.593Z,52.59
2018-04-28T08:48:37.415Z,51.12
2018-04-28T08:51:05.237Z,51.17
2018-04-28T08:53:32.948Z,51.26
2018-04-28T08:56:00.802Z,45.87
2018-04-28T08:58:28.681Z,47.40
2018-04-28T09:01:02.496Z,46.76
2018-04-28T09:03:30.129Z,45.30
2018-04-28T09:05:57.789Z,47.16
2018-04-28T09:08:25.849Z,47.10
2018-04-28T09:10:53.650Z,47.43
2018-04-28T09:13:21.322Z,49.01
2018-04-28T09:15:49.583Z,49.65
2018-04-28T09:18:17.525Z,47.96
2018-04-28T09:20:45.863Z,48.65
2018-04-28T09:23:13.596Z,46.75
2018-04-28T09:25:41.576Z,46.19
2018-04-28T09:28:09.235Z,48.22
2018-04-28T09:30:37.863Z,45.92
2018-04-28T09:33:05.659Z,46.47
2018-04-28T09:35:33.450Z,45.62
2018-04-28T09:38:02.161Z,43.97
2018-04-28T09:40:30.575Z,45.85
2018-04-28T09:42:58.473Z,45.05
2018-04-28T09:45:26.635Z,43.44
2018-04-28T09:47:54.336Z,45.90
2018-04-28T09:50:22.020Z,45.69
2018-04-28T09:52:50.554Z,46.16
2018-04-28T09:55:18.433Z,42.57
2018-04-28T09:57:57.787Z,43.17
2018-04-28T10:00:46.027Z,42.16
2018-04-28T10:03:28.626Z,45.37
2018-04-28T10:05:56.250Z,43.71
2018-04-28T10:08:23.918Z,43.09
2018-04-28T10:10:51.574Z,42.98
2018-04-28T10:13:19.267Z,41.85
2018-04-28T10:15:47.156Z,43.32
2018-04-28T10:18:14.795Z,41.79
2018-04-28T10:20:42.590Z,42.91
2018-04-28T10:23:10.190Z,42.77
2018-04-28T10:25:37.799Z,43.11
2018-04-28T10:28:05.465Z,40.57
2018-04-28T10:30:33.134Z,40.72
2018-04-28T10:33:00.731Z,39.81
2018-04-28T10:35:28.400Z,39.33
2018-04-28T10:37:56.086Z,39.08
2018-04-28T10:40:23.704Z,39.65
2018-04-28T10:42:51.369Z,39.81
2018-04-28T10:45:19.094Z,40.01
2018-04-28T10:47:47.809Z,39.69
2018-04-28T10:50:15.634Z,39.57
2018-04-28T10:52:43.914Z,40.26
2018-04-28T10:55:11.585Z,39.85
2018-04-28T10:57:39.207Z,38.54
2018-04-28T11:00:06.895Z,38.13
2018-04-28T11:02:34.540Z,38.99
2018-04-28T11:05:02.267Z,36.88
2018-04-28T11:07:29.906Z,37.50
2018-04-28T11:09:57.566Z,37.61
2018-04-28T11:12:25.224Z,36.74
2018-04-28T11:14:52.820Z,35.01
2018-04-28T11:17:20.466Z,34.86
2018-04-28T11:19:48.159Z,35.26
2018-04-28T11:22:15.773Z,33.36
2018-04-28T11:24:43.441Z,32.40
2018-04-28T11:27:11.098Z,34.38
2018-04-28T11:29:38.770Z,32.40
2018-04-28T11:32:07.091Z,33.67
2018-04-28T11:34:34.910Z,34.55
2018-04-28T11:37:02.933Z,33.09
2018-04-28T11:39:30.595Z,31.56
2018-04-28T11:41:58.243Z,32.02
2018-04-28T11:44:25.952Z,31.42
2018-04-28T11:46:54.003Z,31.17
2018-04-28T11:49:21.787Z,32.37
2018-04-28T11:51:49.465Z,33.00
2018-04-28T11:54:17.123Z,31.88
2018-04-28T11:56:44.943Z,33.18
2018-04-28T11:59:12.819Z,31.38
2018-04-28T12:01:40.420Z,31.28
2018-04-28T12:04:08.284Z,30.33
2018-04-28T12:06:36.002Z,29.67
2018-04-28T12:09:04.122Z,28.79
2018-04-28T12:11:31.988Z,33.00
2018-04-28T12:13:59.828Z,28.68
2018-04-28T12:16:27.436Z,30.79
2018-04-28T12:18:55.093Z,29.19
2018-04-28T12:21:22.962Z,26.09
2018-04-28T12:23:50.616Z,26.88
2018-04-28T12:26:18.538Z,28.30
2018-04-28T12:28:46.343Z,29.51
2018-04-28T12:31:14.212Z,26.89
2018-04-28T12:33:41.917Z,27.62
2018-04-28T12:36:09.739Z,27.03
2018-04-28T12:38:38.595Z,27.52
2018-04-28T12:41:06.497Z,25.78
2018-04-28T12:43:34.451Z,26.38
2018-04-28T12:46:02.140Z,26.02
2018-04-28T12:48:30.091Z,26.76
2018-04-28T12:50:57.732Z,27.20
2018-04-28T12:53:25.416Z,27.74
2018-04-28T12:55:53.286Z,25.67
2018-04-28T12:58:21.016Z,26.91
2018-04-28T13:00:48.685Z,27.37
2018-04-28T13:03:16.344Z,25.54
2018-04-28T13:05:43.940Z,26.64
2018-04-28T13:08:11.708Z,26.67
2018-04-28T13:10:39.368Z,26.08
2018-04-28T13:13:07.723Z,26.03
2018-04-28T13:15:35.347Z,26.55
2018-04-28T13:18:03.084Z,26.83
2018-04-28T13:20:30.842Z,28.32
2018-04-28T13:22:58.591Z,26.29
2018-04-28T13:25:26.714Z,27.58
2018-04-28T13:27:55.076Z,26.38
2018-04-28T13:30:22.803Z,25.33
2018-04-28T13:32:50.685Z,25.63
2018-04-28T13:35:18.445Z,25.80
2018-04-28T13:37:46.151Z,26.92
2018-04-28T13:40:14.085Z,26.05
2018-04-28T13:42:41.748Z,26.76
2018-04-28T13:45:09.366Z,26.42
2018-04-28T13:47:37.061Z,27.36
2018-04-28T13:50:05.787Z,27.66
2018-04-28T13:52:33.426Z,27.44
2018-04-28T13:55:01.173Z,27.34
2018-04-28T13:57:28.842Z,27.33
2018-04-28T13:59:56.443Z,28.13
2018-04-28T14:02:24.102Z,28.18
2018-04-28T14:04:51.910Z,26.51
2018-04-28T14:07:19.522Z,27.13
2018-04-28T14:09:47.342Z,28.14
2018-04-28T14:12:14.935Z,26.77
2018-04-28T14:14:42.580Z,24.84
2018-04-28T14:17:10.549Z,25.80
2018-04-28T14:19:38.222Z,26.68
2018-04-28T14:22:05.816Z,27.21
2018-04-28T14:24:33.803Z,26.31
2018-04-28T14:27:01.524Z,26.78
2018-04-28T14:29:29.217Z,24.55
2018-04-28T14:31:57.041Z,24.18
2018-04-28T14:34:25.322Z,23.25
2018-04-28T14:36:53.082Z,22.69
2018-04-28T14:39:20.699Z,22.27
2018-04-28T14:41:48.389Z,21.93
2018-04-28T14:44:16.052Z,21.65
2018-04-28T14:46:44.020Z,23.03
2018-04-28T14:49:11.639Z,22.41
2018-04-28T14:51:39.246Z,22.20
2018-04-28T14:54:06.882Z,21.64
2018-04-28T14:56:34.704Z,21.58
2018-04-28T14:59:02.345Z,22.82
2018-04-28T15:01:29.982Z,23.66
2018-04-28T15:03:57.620Z,22.98
2018-04-28T15:06:25.234Z,23.00
2018-04-28T15:08:52.892Z,22.63
2018-04-28T15:11:20.500Z,22.57
2018-04-28T15:13:50.729Z,22.13
2018-04-28T15:16:18.419Z,23.54
2018-04-28T15:18:46.288Z,23.23
2018-04-28T15:21:13.949Z,23.15
2018-04-28T15:23:41.573Z,23.34
2018-04-28T15:26:09.246Z,22.71
2018-04-28T15:28:36.934Z,23.35
2018-04-28T15:31:04.709Z,23.07
2018-04-28T15:33:32.391Z,23.48
2018-04-28T15:36:00.271Z,24.80
2018-04-28T15:38:28.071Z,24.33
2018-04-28T15:40:55.784Z,25.53
2018-04-28T15:43:23.528Z,25.37
2018-04-28T15:45:51.120Z,25.56
2018-04-28T15:48:18.793Z,27.44
2018-04-28T15:50:46.475Z,26.84
2018-04-28T15:53:14.066Z,26.71
2018-04-28T15:55:41.749Z,30.27
2018-04-28T15:58:09.617Z,32.08
2018-04-28T16:00:37.281Z,30.97
2018-04-28T16:03:04.932Z,32.71
2018-04-28T16:05:32.844Z,33.97
2018-04-28T16:08:00.531Z,34.10
2018-04-28T16:10:28.891Z,36.08
2018-04-28T16:12:56.563Z,36.89
2018-04-28T16:15:24.672Z,37.38
2018-04-28T16:17:52.409Z,37.28
2018-04-28T16:20:20.537Z,36.79
2018-04-28T16:22:48.935Z,38.54
2018-04-28T16:25:17.110Z,39.57
2018-04-28T16:27:45.679Z,38.58
2018-04-28T16:30:14.455Z,39.63
2018-04-28T16:32:43.276Z,40.10
2018-04-28T16:35:11.619Z,39.08
2018-04-28T16:37:39.493Z,39.14
2018-04-28T16:40:07.261Z,39.27
2018-04-28T16:42:35.227Z,40.59
2018-04-28T16:45:03.821Z,41.49
2018-04-28T16:47:32.029Z,42.08
2018-04-28T16:49:59.850Z,43.07
2018-04-28T16:52:29.164Z,44.05
2018-04-28T16:54:58.130Z,43.87
2018-04-28T16:57:25.897Z,43.65
2018-04-28T16:59:53.548Z,43.90
2018-04-28T17:02:26.633Z,44.52
2018-04-28T17:04:55.756Z,44.83
2018-04-28T17:07:23.691Z,44.18
2018-04-28T17:09:52.641Z,45.61
2018-04-28T17:12:20.593Z,46.84
2018-04-28T17:14:48.588Z,46.27
2018-04-28T17:17:22.568Z,46.60
2018-04-28T17:19:51.354Z,44.45
2018-04-28T17:22:19.247Z,43.59
2018-04-28T17:24:49.218Z,44.34
2018-04-28T17:27:17.468Z,44.46
2018-04-28T17:29:48.372Z,44.89
2018-04-28T17:32:17.380Z,44.07
2018-04-28T17:34:45.129Z,45.40
2018-04-28T17:37:12.903Z,45.33
2018-04-28T17:39:40.790Z,44.58
2018-04-28T17:42:10.102Z,45.50
2018-04-28T17:44:39.377Z,46.66
2018-04-28T17:47:07.745Z,48.07
2018-04-28T17:49:35.798Z,48.43
2018-04-28T17:52:03.518Z,49.15
2018-04-28T17:54:32.016Z,49.11
2018-04-28T17:56:59.797Z,48.89
2018-04-28T17:59:28.531Z,48.22
2018-04-28T18:01:57.292Z,47.93
2018-04-28T18:04:26.150Z,49.07
2018-04-28T18:06:56.684Z,49.50
2018-04-28T18:09:25.548Z,48.98
2018-04-28T18:11:54.360Z,48.21
2018-04-28T18:14:22.096Z,48.39
2018-04-28T18:16:51.585Z,48.53
2018-04-28T18:19:19.825Z,48.51
2018-04-28T18:21:48.015Z,48.67
2018-04-28T18:24:15.793Z,48.78
2018-04-28T18:26:44.075Z,50.06
2018-04-28T18:29:12.010Z,51.45
2018-04-28T18:31:39.880Z,51.82
2018-04-28T18:34:07.915Z,51.76
2018-04-28T18:36:35.824Z,52.04
2018-04-28T18:39:03.922Z,53.65
2018-04-28T18:41:31.597Z,52.69
2018-04-28T18:43:59.613Z,52.67
2018-04-28T18:46:27.405Z,52.55
2018-04-28T18:48:55.544Z,52.35
2018-04-28T18:51:23.176Z,53.71
2018-04-28T18:53:51.163Z,52.52
2018-04-28T18:56:19.223Z,51.32
2018-04-28T18:58:48.492Z,51.33
2018-04-28T19:01:17.316Z,52.40
2018-04-28T19:03:46.349Z,53.21
2018-04-28T19:06:15.692Z,53.84
2018-04-28T19:08:43.725Z,53.73
2018-04-28T19:11:11.570Z,53.11
2018-04-28T19:13:40.894Z,53.50
2018-04-28T19:16:08.738Z,53.89
2018-04-28T19:18:36.911Z,55.27
2018-04-28T19:21:05.150Z,55.39
2018-04-28T19:23:33.474Z,54.93
2018-04-28T19:26:01.779Z,54.56
2018-04-28T19:28:29.759Z,56.48
2018-04-28T19:30:57.595Z,55.31
2018-04-28T19:33:25.287Z,54.82
2018-04-28T19:35:53.374Z,53.94
2018-04-28T19:38:21.128Z,54.18
2018-04-28T19:40:48.859Z,54.79
2018-04-28T19:43:16.561Z,54.64
2018-04-28T19:45:45.037Z,55.06
2018-04-28T19:48:13.676Z,54.29
2018-04-28T19:50:41.667Z,52.97
2018-04-28T19:53:09.349Z,53.07
2018-04-28T19:55:37.051Z,52.76
2018-04-28T19:58:05.738Z,53.42
2018-04-28T20:00:35.343Z,55.57
2018-04-28T20:03:03.067Z,56.45
2018-04-28T20:05:31.373Z,55.75
2018-04-28T20:07:59.120Z,55.49
2018-04-28T20:10:26.958Z,55.43
2018-04-28T20:12:54.620Z,54.49
2018-04-28T20:15:22.383Z,55.79
2018-04-28T20:17:50.049Z,57.52
2018-04-28T20:20:17.801Z,57.55
2018-04-28T20:22:57.172Z,57.04
2018-04-28T20:25:24.934Z,55.73
2018-04-28T20:27:52.768Z,55.32
2018-04-28T20:30:20.517Z,55.41
2018-04-28T20:32:48.238Z,56.44
2018-04-28T20:35:15.982Z,57.61
2018-04-28T20:37:43.820Z,56.88
2018-04-28T20:40:11.630Z,56.61
2018-04-28T20:42:40.240Z,56.52
2018-04-28T20:45:08.679Z,55.98
2018-04-28T20:47:36.330Z,57.15
2018-04-28T20:50:04.095Z,58.80
2018-04-28T20:52:31.929Z,57.86
2018-04-28T20:54:59.701Z,57.03
2018-04-28T20:57:27.407Z,57.64
2018-04-28T20:59:55.095Z,58.20
2018-04-28T21:02:22.809Z,59.55
2018-04-28T21:04:50.598Z,59.57
2018-04-28T21:07:18.215Z,59.38
2018-04-28T21:09:45.919Z,58.82
2018-04-28T21:12:13.790Z,58.84
2018-04-28T21:14:41.470Z,59.90
2018-04-28T21:17:09.342Z,60.49
2018-04-28T21:19:37.298Z,60.76
2018-04-28T21:22:06.375Z,61.13
2018-04-28T21:24:34.523Z,60.46
2018-04-28T21:27:03.335Z,60.44
2018-04-28T21:29:31.412Z,61.08
2018-04-28T21:31:59.168Z,60.49
2018-04-28T21:34:26.918Z,60.36
2018-04-28T21:36:54.554Z,60.89
2018-04-28T21:39:22.277Z,61.29
2018-04-28T21:41:50.317Z,61.48
2018-04-28T21:44:18.194Z,62.42
2018-04-28T21:46:45.797Z,62.11
2018-04-28T21:49:13.930Z,62.97
2018-04-28T21:51:41.565Z,62.78
2018-04-28T21:54:09.431Z,60.93
2018-04-28T21:56:37.178Z,61.76
2018-04-28T21:59:05.078Z,61.75
2018-04-28T22:01:32.744Z,62.22
2018-04-28T22:04:00.377Z,61.96
2018-04-28T22:06:28.035Z,62.71
2018-04-28T22:08:56.130Z,63.02
2018-04-28T22:11:24.018Z,63.09
2018-04-28T22:13:51.892Z,62.96
2018-04-28T22:16:19.631Z,62.35
2018-04-28T22:18:47.618Z,62.62
2018-04-28T22:21:15.325Z,64.01
2018-04-28T22:23:43.165Z,64.19
2018-04-28T22:26:10.957Z,64.54
2018-04-28T22:28:38.676Z,65.97
2018-04-28T22:31:07.735Z,65.62
2018-04-28T22:33:35.479Z,66.14
2018-04-28T22:36:03.142Z,66.76
2018-04-28T22:38:30.808Z,65.66
2018-04-28T22:40:58.439Z,64.94
2018-04-28T22:43:26.186Z,64.98
2018-04-28T22:45:53.938Z,65.13
2018-04-28T22:48:21.611Z,64.95
2018-04-28T22:50:49.238Z,65.96
2018-04-28T22:53:16.939Z,66.59
2018-04-28T22:55:44.531Z,66.95
2018-04-28T22:58:12.174Z,67.85
2018-04-28T23:00:42.739Z,69.37
2018-04-28T23:03:10.456Z,67.73
2018-04-28T23:05:38.125Z,67.41
2018-04-28T23:08:05.795Z,67.16
2018-04-28T23:10:33.547Z,67.28
2018-04-28T23:13:01.309Z,67.19
2018-04-28T23:15:28.951Z,68.21
2018-04-28T23:17:56.624Z,68.43
2018-04-28T23:20:24.415Z,68.50
2018-04-28T23:22:52.304Z,68.13
2018-04-28T23:25:20.038Z,68.35
2018-04-28T23:27:47.673Z,68.70
2018-04-28T23:30:15.291Z,69.45
2018-04-28T23:32:42.913Z,69.04
2018-04-28T23:35:10.572Z,69.00
2018-04-28T23:37:38.180Z,68.64
2018-04-28T23:40:05.827Z,68.34
2018-04-28T23:42:33.432Z,69.82
2018-04-28T23:45:01.043Z,69.89
2018-04-28T23:47:28.707Z,69.37
2018-04-28T23:49:56.411Z,69.57
2018-04-28T23:52:24.186Z,69.55
2018-04-28T23:54:51.882Z,69.65
2018-04-28T23:57:19.495Z,69.06
2018-04-28T23:59:47.141Z,70.93
